createdAt,value
2018-07-12T00:01:53.790Z,15.40
2018-07-12T00:04:21.278Z,15.40
2018-07-12T00:06:48.762Z,15.40
2018-07-12T00:09:16.264Z,15.40
2018-07-12T00:11:43.766Z,15.40
2018-07-12T00:14:11.257Z,15.40
2018-07-12T00:16:38.751Z,15.40
2018-07-12T00:19:06.249Z,15.30
2018-07-12T00:21:33.738Z,15.30
2018-07-12T00:24:01.230Z,15.30
2018-07-12T00:26:28.710Z,15.30
2018-07-12T00:28:56.214Z,15.30
2018-07-12T00:31:23.706Z,15.30
2018-07-12T00:33:51.274Z,15.30
2018-07-12T00:36:18.734Z,15.30
2018-07-12T00:38:46.268Z,15.30
2018-07-12T00:41:13.759Z,15.30
2018-07-12T00:43:41.255Z,15.30
2018-07-12T00:46:08.754Z,15.30
2018-07-12T00:48:36.246Z,15.20
2018-07-12T00:51:03.761Z,15.20
2018-07-12T00:53:31.286Z,15.20
2018-07-12T00:55:58.797Z,15.20
2018-07-12T00:58:26.280Z,15.20
2018-07-12T01:00:53.774Z,15.10
2018-07-12T01:03:21.282Z,15.20
2018-07-12T01:05:48.789Z,15.10
2018-07-12T01:08:16.286Z,15.10
2018-07-12T01:10:43.786Z,15.20
2018-07-12T01:13:11.313Z,15.20
2018-07-12T01:15:38.806Z,15.20
2018-07-12T01:18:06.285Z,15.30
2018-07-12T01:20:33.795Z,15.30
2018-07-12T01:23:01.358Z,15.30
2018-07-12T01:25:28.846Z,15.20
2018-07-12T01:27:56.338Z,15.20
2018-07-12T01:30:23.834Z,15.20
2018-07-12T01:32:51.330Z,15.20
2018-07-12T01:35:18.831Z,15.20
2018-07-12T01:37:46.344Z,15.20
2018-07-12T01:40:13.838Z,15.20
2018-07-12T01:42:41.326Z,15.10
2018-07-12T01:45:08.811Z,15.10
2018-07-12T01:47:36.327Z,15.10
2018-07-12T01:50:03.821Z,15.10
2018-07-12T01:52:31.321Z,15.10
2018-07-12T01:54:58.809Z,15.10
2018-07-12T01:57:27.153Z,15.00
2018-07-12T01:59:54.718Z,15.00
2018-07-12T02:02:22.207Z,15.00
2018-07-12T02:04:49.695Z,15.00
2018-07-12T02:07:17.186Z,15.00
2018-07-12T02:09:44.669Z,15.00
2018-07-12T02:12:12.180Z,15.00
2018-07-12T02:14:39.674Z,15.00
2018-07-12T02:19:34.953Z,15.00
2018-07-12T02:22:02.446Z,15.00
2018-07-12T02:24:29.948Z,15.00
2018-07-12T02:26:57.440Z,15.10
2018-07-12T02:29:24.960Z,15.10
2018-07-12T02:31:52.463Z,15.10
2018-07-12T02:34:19.967Z,15.20
2018-07-12T02:36:47.487Z,15.20
2018-07-12T02:39:14.983Z,15.20
2018-07-12T02:41:42.478Z,15.30
2018-07-12T02:44:10.019Z,15.30
2018-07-12T02:46:37.557Z,15.40
2018-07-12T02:49:05.050Z,15.40
2018-07-12T02:51:32.557Z,15.50
2018-07-12T02:54:00.072Z,15.50
2018-07-12T02:56:27.552Z,15.50
2018-07-12T02:58:55.051Z,15.60
2018-07-12T03:01:22.544Z,15.70
2018-07-12T03:03:50.054Z,15.70
2018-07-12T03:06:17.578Z,15.70
2018-07-12T03:08:45.067Z,15.80
2018-07-12T03:11:12.546Z,15.80
2018-07-12T03:13:40.039Z,15.90
2018-07-12T03:16:07.541Z,15.90
2018-07-12T03:18:35.123Z,15.90
2018-07-12T03:21:02.620Z,15.90
2018-07-12T03:23:30.118Z,15.90
2018-07-12T03:25:57.614Z,16.00
2018-07-12T03:28:25.118Z,16.00
2018-07-12T03:30:52.601Z,16.10
2018-07-12T03:33:20.106Z,16.20
2018-07-12T03:35:47.927Z,16.20
2018-07-12T03:38:15.426Z,16.30
2018-07-12T03:40:42.950Z,16.30
2018-07-12T03:43:10.490Z,16.50
2018-07-12T03:45:37.974Z,16.50
2018-07-12T03:48:05.460Z,16.60
2018-07-12T03:50:32.966Z,16.70
2018-07-12T03:53:00.466Z,16.80
2018-07-12T03:55:27.969Z,16.80
2018-07-12T03:57:55.485Z,16.90
2018-07-12T04:00:22.987Z,16.90
2018-07-12T04:02:50.491Z,17.00
2018-07-12T04:05:18.121Z,17.00
2018-07-12T04:07:45.638Z,17.10
2018-07-12T04:10:13.119Z,17.10
2018-07-12T04:12:40.698Z,17.20
2018-07-12T04:15:08.186Z,17.20
2018-07-12T04:17:35.908Z,17.30
2018-07-12T04:20:04.589Z,17.30
2018-07-12T04:22:33.368Z,17.30
2018-07-12T04:25:00.851Z,17.30
2018-07-12T04:27:28.698Z,17.40
2018-07-12T04:29:57.581Z,17.40
2018-07-12T04:32:25.075Z,17.40
2018-07-12T04:34:52.802Z,17.50
2018-07-12T04:37:20.314Z,17.50
2018-07-12T04:39:47.852Z,17.50
2018-07-12T04:42:15.363Z,17.50
2018-07-12T04:44:42.854Z,17.60
2018-07-12T04:47:10.366Z,17.60
2018-07-12T04:49:37.869Z,17.70
2018-07-12T04:52:05.363Z,17.80
2018-07-12T04:54:32.882Z,17.80
2018-07-12T04:57:00.368Z,17.90
2018-07-12T04:59:27.850Z,17.90
2018-07-12T05:01:55.331Z,18.00
2018-07-12T05:04:22.834Z,18.10
2018-07-12T05:06:50.329Z,18.20
2018-07-12T05:09:17.805Z,18.20
2018-07-12T05:11:45.306Z,18.30
2018-07-12T05:14:12.793Z,18.30
2018-07-12T05:16:40.278Z,18.40
2018-07-12T05:19:07.765Z,18.50
2018-07-12T05:21:35.263Z,18.50
2018-07-12T05:24:02.753Z,18.60
2018-07-12T05:26:30.257Z,18.70
2018-07-12T05:28:57.745Z,18.90
2018-07-12T05:31:25.233Z,19.00
2018-07-12T05:33:52.832Z,19.20
2018-07-12T05:36:30.884Z,19.30
2018-07-12T05:38:59.669Z,19.40
2018-07-12T05:41:28.482Z,19.50
2018-07-12T05:43:57.302Z,19.70
2018-07-12T05:46:26.082Z,19.80
2018-07-12T05:48:54.862Z,19.90
2018-07-12T05:51:23.630Z,20.00
2018-07-12T05:53:52.485Z,20.20
2018-07-12T05:56:21.246Z,20.30
2018-07-12T05:58:50.020Z,20.40
2018-07-12T06:03:52.622Z,20.70
2018-07-12T06:06:21.398Z,20.80
2018-07-12T06:08:50.162Z,21.00
2018-07-12T06:11:18.950Z,21.20
2018-07-12T06:13:47.710Z,21.40
2018-07-12T06:16:16.540Z,21.60
2018-07-12T06:18:45.314Z,21.70
2018-07-12T06:21:14.058Z,21.80
2018-07-12T06:23:42.884Z,21.90
2018-07-12T06:26:11.738Z,22.00
2018-07-12T06:28:40.677Z,22.20
2018-07-12T06:31:09.490Z,22.20
2018-07-12T06:33:38.344Z,22.30
2018-07-12T06:36:07.126Z,22.50
2018-07-12T06:38:35.910Z,22.50
2018-07-12T06:41:04.687Z,22.70
2018-07-12T06:43:33.452Z,22.90
2018-07-12T06:46:02.278Z,23.00
2018-07-12T06:48:31.092Z,23.10
2018-07-12T06:51:01.627Z,23.20
2018-07-12T06:53:30.430Z,23.50
2018-07-12T06:55:59.218Z,23.60
2018-07-12T06:58:27.999Z,23.80
2018-07-12T07:00:56.790Z,23.90
2018-07-12T07:03:25.650Z,23.80
2018-07-12T07:05:54.541Z,23.90
2018-07-12T07:08:23.317Z,24.00
2018-07-12T07:10:52.122Z,24.20
2018-07-12T07:13:20.906Z,24.30
2018-07-12T07:15:49.641Z,24.30
2018-07-12T07:18:18.423Z,24.40
2018-07-12T07:20:47.350Z,24.70
2018-07-12T07:23:16.303Z,25.00
2018-07-12T07:25:45.171Z,25.20
2018-07-12T07:28:13.956Z,25.40
2018-07-12T07:30:42.838Z,25.40
2018-07-12T07:33:11.655Z,25.40
2018-07-12T07:35:40.488Z,25.40
2018-07-12T07:38:09.282Z,25.20
2018-07-12T07:40:38.071Z,25.00
2018-07-12T07:43:06.893Z,25.10
2018-07-12T07:45:35.849Z,25.50
2018-07-12T07:48:04.687Z,25.90
2018-07-12T07:50:33.514Z,26.30
2018-07-12T07:53:02.415Z,26.60
2018-07-12T07:55:31.206Z,26.60
2018-07-12T07:57:59.979Z,26.80
2018-07-12T08:00:28.783Z,26.80
2018-07-12T08:02:57.541Z,26.90
2018-07-12T08:05:26.350Z,27.10
2018-07-12T08:07:55.122Z,26.90
2018-07-12T08:10:23.971Z,27.00
2018-07-12T08:12:52.756Z,27.10
2018-07-12T08:15:21.550Z,27.10
2018-07-12T08:17:50.345Z,27.10
2018-07-12T08:20:19.223Z,27.20
2018-07-12T08:22:48.011Z,27.40
2018-07-12T08:25:16.817Z,27.30
2018-07-12T08:27:56.621Z,27.20
2018-07-12T08:30:25.498Z,27.10
2018-07-12T08:32:54.271Z,27.40
2018-07-12T08:35:23.077Z,28.00
2018-07-12T08:37:52.068Z,28.50
2018-07-12T08:40:20.877Z,29.00
2018-07-12T08:42:49.758Z,29.30
2018-07-12T08:45:18.561Z,29.40
2018-07-12T08:47:47.344Z,29.20
2018-07-12T08:50:16.187Z,29.60
2018-07-12T08:52:45.018Z,29.40
2018-07-12T08:55:13.812Z,29.10
2018-07-12T08:57:42.570Z,28.90
2018-07-12T09:00:11.383Z,28.90
2018-07-12T09:02:40.274Z,28.70
2018-07-12T09:05:09.095Z,28.80
2018-07-12T09:07:37.856Z,29.40
2018-07-12T09:10:06.776Z,29.70
2018-07-12T09:12:35.586Z,30.30
2018-07-12T09:15:04.465Z,30.20
2018-07-12T09:17:33.239Z,29.70
2018-07-12T09:20:02.002Z,29.50
2018-07-12T09:22:30.775Z,29.00
2018-07-12T09:24:59.571Z,28.60
2018-07-12T09:27:28.375Z,28.50
2018-07-12T09:29:57.142Z,28.60
2018-07-12T09:32:25.942Z,28.90
2018-07-12T09:34:54.746Z,29.00
2018-07-12T09:37:23.539Z,29.20
2018-07-12T09:39:52.353Z,28.90
2018-07-12T09:42:21.185Z,29.00
2018-07-12T09:44:49.998Z,29.40
2018-07-12T09:47:18.867Z,29.50
2018-07-12T09:49:47.698Z,29.30
2018-07-12T09:52:21.623Z,29.20
2018-07-12T09:54:50.434Z,29.40
2018-07-12T09:57:30.391Z,29.30
2018-07-12T09:59:59.173Z,29.20
2018-07-12T10:02:33.281Z,29.50
2018-07-12T10:05:02.067Z,29.10
2018-07-12T10:07:30.859Z,28.90
2018-07-12T10:09:59.676Z,29.30
2018-07-12T10:12:33.022Z,29.40
2018-07-12T10:15:07.242Z,29.60
2018-07-12T10:17:44.658Z,29.70
2018-07-12T10:20:13.447Z,29.60
2018-07-12T10:22:42.206Z,29.70
2018-07-12T10:25:10.997Z,29.60
2018-07-12T10:27:39.774Z,29.50
2018-07-12T10:30:08.575Z,29.80
2018-07-12T10:32:37.438Z,29.90
2018-07-12T10:35:06.238Z,29.90
2018-07-12T10:37:35.005Z,30.10
2018-07-12T10:40:03.882Z,30.10
2018-07-12T10:42:32.742Z,30.00
2018-07-12T10:45:01.516Z,30.00
2018-07-12T10:47:30.250Z,30.10
2018-07-12T10:52:27.373Z,30.00
2018-07-12T10:54:56.169Z,30.00
2018-07-12T10:57:24.945Z,30.30
2018-07-12T10:59:53.718Z,30.60
2018-07-12T11:02:22.571Z,30.80
2018-07-12T11:04:51.382Z,31.10
2018-07-12T11:07:20.146Z,31.20
2018-07-12T11:09:48.950Z,31.00
2018-07-12T11:12:17.763Z,30.90
2018-07-12T11:14:46.553Z,31.10
2018-07-12T11:17:15.338Z,31.30
2018-07-12T11:19:44.132Z,31.60
2018-07-12T11:22:12.922Z,31.40
2018-07-12T11:24:41.682Z,31.40
2018-07-12T11:27:10.466Z,31.00
2018-07-12T11:29:55.077Z,31.20
2018-07-12T11:32:23.944Z,31.50
2018-07-12T11:34:52.773Z,31.40
2018-07-12T11:39:52.805Z,31.90
2018-07-12T11:42:21.589Z,32.30
2018-07-12T11:44:50.780Z,32.30
2018-07-12T11:47:20.244Z,32.50
2018-07-12T11:49:49.031Z,32.60
2018-07-12T11:52:17.846Z,32.50
2018-07-12T11:54:46.810Z,32.90
2018-07-12T11:57:15.616Z,32.60
2018-07-12T11:59:44.398Z,31.40
2018-07-12T12:02:13.194Z,31.00
2018-07-12T12:04:41.969Z,30.50
2018-07-12T12:07:10.779Z,30.40
2018-07-12T12:09:39.598Z,30.30
2018-07-12T12:12:08.412Z,30.20
2018-07-12T12:14:37.205Z,30.10
2018-07-12T12:17:05.992Z,29.90
2018-07-12T12:19:34.794Z,29.70
2018-07-12T12:22:03.618Z,30.00
2018-07-12T12:24:32.410Z,30.60
2018-07-12T12:27:01.167Z,31.00
2018-07-12T12:29:29.985Z,31.10
2018-07-12T12:31:58.800Z,31.40
2018-07-12T12:34:27.617Z,31.70
2018-07-12T12:36:56.579Z,30.80
2018-07-12T12:39:25.408Z,32.90
2018-07-12T12:41:54.331Z,32.00
2018-07-12T12:44:23.088Z,31.40
2018-07-12T12:46:51.957Z,30.60
2018-07-12T12:49:20.817Z,29.70
2018-07-12T12:51:49.587Z,28.50
2018-07-12T12:54:18.370Z,27.50
2018-07-12T12:56:47.218Z,26.90
2018-07-12T12:59:16.003Z,26.40
2018-07-12T13:01:44.818Z,26.30
2018-07-12T13:04:13.594Z,26.00
2018-07-12T13:06:42.395Z,26.10
2018-07-12T13:09:11.225Z,25.90
2018-07-12T13:11:39.995Z,26.00
2018-07-12T13:16:37.155Z,25.70
2018-07-12T13:19:05.953Z,25.50
2018-07-12T13:21:34.782Z,25.60
2018-07-12T13:24:03.567Z,25.50
2018-07-12T13:26:32.358Z,25.80
2018-07-12T13:29:01.128Z,25.80
2018-07-12T13:31:29.915Z,26.00
2018-07-12T13:33:58.722Z,25.80
2018-07-12T13:36:27.579Z,25.80
2018-07-12T13:38:56.363Z,25.80
2018-07-12T13:41:25.171Z,25.50
2018-07-12T13:44:18.750Z,25.20
2018-07-12T13:46:48.680Z,25.40
2018-07-12T13:49:17.750Z,25.60
2018-07-12T13:51:48.694Z,25.80
2018-07-12T13:54:18.094Z,26.10
2018-07-12T13:56:47.386Z,26.30
2018-07-12T13:59:16.162Z,26.60
2018-07-12T14:01:44.962Z,27.00
2018-07-12T14:04:13.765Z,27.70
2018-07-12T14:06:42.542Z,28.40
2018-07-12T14:09:12.566Z,29.80
2018-07-12T14:11:41.342Z,30.50
2018-07-12T14:14:10.449Z,31.30
2018-07-12T14:16:39.235Z,33.20
2018-07-12T14:19:08.082Z,34.40
2018-07-12T14:21:36.902Z,35.70
2018-07-12T14:24:05.707Z,36.20
2018-07-12T14:26:34.623Z,36.70
2018-07-12T14:29:03.438Z,37.40
2018-07-12T14:31:32.232Z,37.60
2018-07-12T14:34:01.047Z,37.70
2018-07-12T14:36:29.874Z,38.00
2018-07-12T14:38:58.686Z,37.00
2018-07-12T14:41:27.474Z,38.10
2018-07-12T14:43:56.290Z,37.90
2018-07-12T14:46:25.078Z,38.20
2018-07-12T14:48:53.851Z,37.30
2018-07-12T14:51:22.690Z,36.20
2018-07-12T14:53:51.505Z,35.30
2018-07-12T14:56:20.276Z,34.60
2018-07-12T14:58:49.064Z,34.20
2018-07-12T15:01:17.842Z,33.90
2018-07-12T15:03:46.586Z,33.80
2018-07-12T15:06:15.374Z,33.70
2018-07-12T15:08:44.219Z,33.80
2018-07-12T15:11:12.990Z,33.70
2018-07-12T15:13:41.914Z,33.80
2018-07-12T15:16:10.768Z,34.10
2018-07-12T15:18:39.563Z,34.00
2018-07-12T15:21:08.397Z,33.80
2018-07-12T15:23:37.257Z,33.90
2018-07-12T15:26:06.184Z,34.40
2018-07-12T15:28:34.946Z,35.10
2018-07-12T15:31:03.759Z,35.70
2018-07-12T15:33:32.620Z,35.90
2018-07-12T15:36:01.447Z,35.60
2018-07-12T15:38:30.274Z,35.40
2018-07-12T15:40:59.098Z,35.60
2018-07-12T15:43:27.895Z,35.80
2018-07-12T15:45:56.773Z,35.40
2018-07-12T15:48:25.578Z,33.30
2018-07-12T15:50:54.390Z,32.80
2018-07-12T15:53:23.213Z,32.30
2018-07-12T15:55:51.997Z,32.10
2018-07-12T15:58:20.825Z,31.70
2018-07-12T16:00:49.630Z,31.30
2018-07-12T16:03:18.450Z,31.00
2018-07-12T16:05:47.247Z,30.30
2018-07-12T16:08:16.038Z,30.00
2018-07-12T16:10:44.846Z,29.50
2018-07-12T16:13:13.670Z,29.50
2018-07-12T16:19:01.049Z,30.60
2018-07-12T16:21:30.027Z,32.90
2018-07-12T16:23:58.866Z,31.30
2018-07-12T16:26:27.635Z,30.60
2018-07-12T16:28:56.434Z,30.20
2018-07-12T16:31:25.223Z,29.50
2018-07-12T16:33:54.015Z,29.10
2018-07-12T16:36:22.826Z,28.90
2018-07-12T16:38:51.592Z,28.50
2018-07-12T16:41:20.454Z,28.30
2018-07-12T16:43:49.327Z,27.60
2018-07-12T16:48:46.958Z,27.90
2018-07-12T16:51:15.739Z,28.10
2018-07-12T16:53:44.549Z,27.90
2018-07-12T16:56:13.370Z,27.60
2018-07-12T16:58:42.243Z,27.20
2018-07-12T17:01:11.070Z,27.40
2018-07-12T17:03:39.889Z,27.60
2018-07-12T17:06:08.736Z,27.30
2018-07-12T17:08:37.522Z,27.20
2018-07-12T17:11:06.280Z,26.60
2018-07-12T17:13:35.080Z,26.30
2018-07-12T17:16:03.907Z,25.90
2018-07-12T17:18:32.734Z,25.50
2018-07-12T17:21:01.566Z,25.50
2018-07-12T17:23:30.459Z,25.30
2018-07-12T17:25:59.266Z,25.30
2018-07-12T17:28:28.046Z,25.20
2018-07-12T17:30:56.896Z,25.20
2018-07-12T17:33:25.774Z,25.10
2018-07-12T17:35:54.584Z,25.20
2018-07-12T17:38:23.396Z,25.40
2018-07-12T17:40:52.235Z,25.10
2018-07-12T17:43:27.476Z,25.00
2018-07-12T17:45:56.267Z,24.80
2018-07-12T17:48:25.023Z,24.70
2018-07-12T17:50:53.926Z,24.70
2018-07-12T17:53:22.706Z,24.70
2018-07-12T17:55:51.520Z,24.70
2018-07-12T17:58:20.366Z,24.40
2018-07-12T18:00:49.126Z,24.20
2018-07-12T18:03:17.942Z,24.00
2018-07-12T18:05:46.751Z,23.80
2018-07-12T18:08:15.606Z,24.00
2018-07-12T18:10:44.448Z,24.10
2018-07-12T18:13:13.294Z,24.00
2018-07-12T18:15:42.296Z,23.30
2018-07-12T18:18:11.053Z,22.90
2018-07-12T18:20:39.850Z,22.80
2018-07-12T18:23:08.605Z,22.70
2018-07-12T18:25:37.408Z,22.60
2018-07-12T18:28:06.368Z,22.50
2018-07-12T18:30:35.202Z,22.50
2018-07-12T18:33:04.077Z,22.30
2018-07-12T18:35:32.923Z,22.10
2018-07-12T18:38:01.738Z,22.00
2018-07-12T18:40:30.519Z,21.80
2018-07-12T18:42:59.878Z,21.80
2018-07-12T18:45:28.642Z,21.70
2018-07-12T18:47:57.545Z,21.70
2018-07-12T18:50:26.388Z,21.60
2018-07-12T18:52:55.193Z,21.50
2018-07-12T18:55:24.259Z,21.40
2018-07-12T18:57:53.070Z,21.30
2018-07-12T19:00:21.898Z,21.20
2018-07-12T19:02:50.672Z,21.20
2018-07-12T19:05:19.534Z,21.10
2018-07-12T19:07:48.293Z,21.10
2018-07-12T19:10:17.070Z,20.90
2018-07-12T19:12:45.874Z,20.80
2018-07-12T19:15:14.697Z,20.80
2018-07-12T19:17:43.502Z,20.70
2018-07-12T19:20:12.314Z,20.70
2018-07-12T19:22:41.102Z,20.70
2018-07-12T19:25:09.906Z,20.60
2018-07-12T19:27:38.710Z,20.60
2018-07-12T19:30:07.499Z,20.60
2018-07-12T19:32:36.355Z,20.50
2018-07-12T19:35:05.376Z,20.40
2018-07-12T19:37:34.022Z,20.40
2018-07-12T19:40:02.861Z,20.40
2018-07-12T19:42:31.674Z,20.40
2018-07-12T19:45:00.489Z,20.30
2018-07-12T19:47:29.298Z,20.30
2018-07-12T19:49:58.118Z,20.20
2018-07-12T19:52:26.943Z,20.00
2018-07-12T19:54:55.749Z,20.00
2018-07-12T19:57:24.612Z,20.00
2018-07-12T19:59:53.414Z,19.90
2018-07-12T20:02:22.313Z,19.90
2018-07-12T20:04:51.126Z,19.90
2018-07-12T20:07:20.014Z,19.80
2018-07-12T20:09:49.056Z,19.80
2018-07-12T20:12:17.898Z,19.70
2018-07-12T20:14:46.674Z,19.70
2018-07-12T20:17:15.463Z,19.70
2018-07-12T20:19:44.209Z,19.70
2018-07-12T20:22:12.974Z,19.60
2018-07-12T20:24:41.811Z,19.60
2018-07-12T20:27:10.616Z,19.50
2018-07-12T20:32:07.847Z,19.50
2018-07-12T20:34:36.697Z,19.40
2018-07-12T20:37:05.670Z,19.40
2018-07-12T20:39:34.502Z,19.30
2018-07-12T20:42:03.348Z,19.30
2018-07-12T20:44:32.164Z,19.30
2018-07-12T20:47:01.030Z,19.20
2018-07-12T20:49:29.819Z,19.10
2018-07-12T20:51:58.610Z,19.10
2018-07-12T20:56:56.196Z,19.00
2018-07-12T20:59:25.039Z,18.90
2018-07-12T21:01:53.875Z,18.80
2018-07-12T21:04:22.802Z,18.80
2018-07-12T21:06:51.804Z,18.70
2018-07-12T21:09:20.663Z,18.60
2018-07-12T21:11:49.472Z,18.50
2018-07-12T21:14:18.246Z,18.40
2018-07-12T21:16:47.032Z,18.30
2018-07-12T21:19:15.867Z,18.20
2018-07-12T21:21:44.654Z,18.10
2018-07-12T21:24:13.468Z,18.00
2018-07-12T21:26:42.386Z,17.90
2018-07-12T21:29:11.174Z,17.90
2018-07-12T21:31:40.007Z,17.80
2018-07-12T21:34:08.821Z,17.80
2018-07-12T21:36:37.632Z,17.80
2018-07-12T21:39:08.479Z,17.70
2018-07-12T21:41:37.393Z,17.70
2018-07-12T21:44:06.270Z,17.70
2018-07-12T21:46:35.078Z,17.80
2018-07-12T21:49:03.952Z,17.80
2018-07-12T21:51:32.846Z,17.90
2018-07-12T21:54:01.614Z,17.90
2018-07-12T21:56:30.432Z,18.00
2018-07-12T21:58:59.231Z,18.00
2018-07-12T22:01:28.650Z,18.10
2018-07-12T22:03:57.464Z,18.00
2018-07-12T22:07:35.682Z,18.00
2018-07-12T22:10:04.881Z,18.00
2018-07-12T22:12:33.711Z,18.00
2018-07-12T22:15:02.550Z,17.90
2018-07-12T22:17:31.411Z,17.90
2018-07-12T22:20:00.448Z,17.90
2018-07-12T22:22:29.293Z,17.90
2018-07-12T22:24:58.036Z,17.90
2018-07-12T22:27:26.811Z,17.90
2018-07-12T22:29:55.588Z,17.80
2018-07-12T22:32:24.393Z,17.80
2018-07-12T22:34:53.129Z,17.80
2018-07-12T22:37:21.916Z,17.70
2018-07-12T22:39:50.734Z,17.70
2018-07-12T22:42:19.506Z,17.70
2018-07-12T22:44:48.298Z,17.60
2018-07-12T22:47:17.119Z,17.60
2018-07-12T22:49:46.189Z,17.50
2018-07-12T22:52:14.986Z,17.50
2018-07-12T22:54:43.737Z,17.50
2018-07-12T22:57:12.535Z,17.40
2018-07-12T22:59:41.342Z,17.40
2018-07-12T23:02:10.125Z,17.30
2018-07-12T23:04:38.913Z,17.30
2018-07-12T23:07:07.669Z,17.20
2018-07-12T23:09:36.478Z,17.30
2018-07-12T23:12:05.850Z,17.20
2018-07-12T23:14:35.078Z,17.30
2018-07-12T23:17:03.879Z,17.30
2018-07-12T23:19:32.681Z,17.30
2018-07-12T23:22:01.467Z,17.30
2018-07-12T23:24:30.246Z,17.30
2018-07-12T23:26:59.090Z,17.40
2018-07-12T23:29:27.853Z,17.30
2018-07-12T23:31:56.646Z,17.40
2018-07-12T23:34:25.428Z,17.40
2018-07-12T23:36:54.193Z,17.40
2018-07-12T23:39:22.971Z,17.40
2018-07-12T23:41:51.754Z,17.50
2018-07-12T23:44:20.598Z,17.50
2018-07-12T23:46:49.416Z,17.50
2018-07-12T23:49:18.238Z,17.50
2018-07-12T23:51:47.066Z,17.50
2018-07-12T23:54:16.148Z,17.60
2018-07-12T23:56:44.906Z,17.60
2018-07-12T23:59:13.678Z,17.60
